sensor_id;sensor_type;location;lat;lon;timestamp;P1;durP1;ratioP1;P2;durP2;ratioP2
26750;SDS011;14345;48.272;25.926;2023-07-20T00:00:50;4.75;;;4.00;;
26750;SDS011;14345;48.272;25.926;2023-07-20T00:03:18;4.47;;;4.07;;
26750;SDS011;14345;48.272;25.926;2023-07-20T00:05:48;7.47;;;5.03;;
26750;SDS011;14345;48.272;25.926;2023-07-20T00:08:14;9.20;;;4.18;;
26750;SDS011;14345;48.272;25.926;2023-07-20T00:10:41;7.53;;;3.90;;
26750;SDS011;14345;48.272;25.926;2023-07-20T00:13:07;6.70;;;4.68;;
26750;SDS011;14345;48.272;25.926;2023-07-20T00:15:33;5.03;;;4.10;;
26750;SDS011;14345;48.272;25.926;2023-07-20T00:17:59;4.90;;;3.83;;
26750;SDS011;14345;48.272;25.926;2023-07-20T00:20:25;5.95;;;4.50;;
26750;SDS011;14345;48.272;25.926;2023-07-20T00:22:51;7.40;;;5.72;;
26750;SDS011;14345;48.272;25.926;2023-07-20T00:25:17;9.70;;;5.72;;
26750;SDS011;14345;48.272;25.926;2023-07-20T00:27:43;6.22;;;4.78;;
26750;SDS011;14345;48.272;25.926;2023-07-20T00:30:09;10.68;;;4.82;;
26750;SDS011;14345;48.272;25.926;2023-07-20T00:32:36;5.10;;;3.92;;
26750;SDS011;14345;48.272;25.926;2023-07-20T00:35:02;5.68;;;4.13;;
26750;SDS011;14345;48.272;25.926;2023-07-20T00:37:28;5.28;;;3.88;;
26750;SDS011;14345;48.272;25.926;2023-07-20T00:39:54;6.38;;;4.18;;
26750;SDS011;14345;48.272;25.926;2023-07-20T00:42:20;5.22;;;4.22;;
26750;SDS011;14345;48.272;25.926;2023-07-20T00:44:46;6.30;;;3.60;;
26750;SDS011;14345;48.272;25.926;2023-07-20T00:47:12;5.47;;;4.07;;
26750;SDS011;14345;48.272;25.926;2023-07-20T00:49:38;6.05;;;4.15;;
26750;SDS011;14345;48.272;25.926;2023-07-20T00:52:06;4.80;;;4.00;;
26750;SDS011;14345;48.272;25.926;2023-07-20T00:54:33;4.85;;;4.15;;
26750;SDS011;14345;48.272;25.926;2023-07-20T00:57:00;5.63;;;4.03;;
26750;SDS011;14345;48.272;25.926;2023-07-20T00:59:27;5.90;;;4.13;;
26750;SDS011;14345;48.272;25.926;2023-07-20T01:01:53;7.50;;;4.18;;
26750;SDS011;14345;48.272;25.926;2023-07-20T01:04:19;5.43;;;4.28;;
26750;SDS011;14345;48.272;25.926;2023-07-20T01:06:53;4.82;;;4.10;;
26750;SDS011;14345;48.272;25.926;2023-07-20T01:09:26;6.18;;;4.43;;
26750;SDS011;14345;48.272;25.926;2023-07-20T01:11:57;5.63;;;4.00;;
26750;SDS011;14345;48.272;25.926;2023-07-20T01:14:25;4.15;;;3.40;;
26750;SDS011;14345;48.272;25.926;2023-07-20T01:16:51;6.05;;;4.20;;
26750;SDS011;14345;48.272;25.926;2023-07-20T01:19:17;5.00;;;4.40;;
26750;SDS011;14345;48.272;25.926;2023-07-20T01:21:49;8.27;;;5.97;;
26750;SDS011;14345;48.272;25.926;2023-07-20T01:24:20;4.90;;;3.55;;
26750;SDS011;14345;48.272;25.926;2023-07-20T01:31:55;7.28;;;4.22;;
26750;SDS011;14345;48.272;25.926;2023-07-20T01:34:23;5.55;;;4.03;;
26750;SDS011;14345;48.272;25.926;2023-07-20T01:36:50;7.35;;;4.20;;
26750;SDS011;14345;48.272;25.926;2023-07-20T01:39:18;4.55;;;3.53;;
26750;SDS011;14345;48.272;25.926;2023-07-20T01:41:45;4.32;;;3.60;;
26750;SDS011;14345;48.272;25.926;2023-07-20T01:44:12;4.90;;;3.50;;
26750;SDS011;14345;48.272;25.926;2023-07-20T01:46:38;5.43;;;3.80;;
26750;SDS011;14345;48.272;25.926;2023-07-20T01:49:04;4.15;;;3.70;;
26750;SDS011;14345;48.272;25.926;2023-07-20T01:51:30;7.43;;;3.78;;
26750;SDS011;14345;48.272;25.926;2023-07-20T01:53:56;4.65;;;3.83;;
26750;SDS011;14345;48.272;25.926;2023-07-20T01:56:22;4.13;;;3.25;;
26750;SDS011;14345;48.272;25.926;2023-07-20T01:58:48;4.60;;;3.88;;
26750;SDS011;14345;48.272;25.926;2023-07-20T02:01:14;4.45;;;3.78;;
26750;SDS011;14345;48.272;25.926;2023-07-20T02:03:40;5.80;;;4.35;;
26750;SDS011;14345;48.272;25.926;2023-07-20T02:06:06;6.57;;;5.07;;
26750;SDS011;14345;48.272;25.926;2023-07-20T02:08:32;9.95;;;6.68;;
26750;SDS011;14345;48.272;25.926;2023-07-20T02:10:58;9.10;;;6.82;;
26750;SDS011;14345;48.272;25.926;2023-07-20T02:13:24;9.25;;;6.45;;
26750;SDS011;14345;48.272;25.926;2023-07-20T02:15:50;9.52;;;6.70;;
26750;SDS011;14345;48.272;25.926;2023-07-20T02:18:16;9.70;;;7.35;;
26750;SDS011;14345;48.272;25.926;2023-07-20T02:20:42;10.05;;;7.18;;
26750;SDS011;14345;48.272;25.926;2023-07-20T02:23:08;13.10;;;8.40;;
26750;SDS011;14345;48.272;25.926;2023-07-20T02:25:34;11.57;;;9.93;;
26750;SDS011;14345;48.272;25.926;2023-07-20T02:28:00;16.38;;;13.10;;
26750;SDS011;14345;48.272;25.926;2023-07-20T02:30:26;21.02;;;15.20;;
26750;SDS011;14345;48.272;25.926;2023-07-20T02:32:52;23.80;;;16.08;;
26750;SDS011;14345;48.272;25.926;2023-07-20T02:35:18;21.27;;;17.20;;
26750;SDS011;14345;48.272;25.926;2023-07-20T02:37:44;21.30;;;16.40;;
26750;SDS011;14345;48.272;25.926;2023-07-20T02:40:11;20.98;;;17.33;;
26750;SDS011;14345;48.272;25.926;2023-07-20T02:42:37;20.80;;;15.98;;
26750;SDS011;14345;48.272;25.926;2023-07-20T02:45:03;23.35;;;16.25;;
26750;SDS011;14345;48.272;25.926;2023-07-20T02:47:30;22.05;;;16.83;;
26750;SDS011;14345;48.272;25.926;2023-07-20T02:49:56;23.13;;;17.38;;
26750;SDS011;14345;48.272;25.926;2023-07-20T02:52:22;20.25;;;15.40;;
26750;SDS011;14345;48.272;25.926;2023-07-20T02:54:49;22.45;;;18.02;;
26750;SDS011;14345;48.272;25.926;2023-07-20T02:57:15;28.52;;;20.70;;
26750;SDS011;14345;48.272;25.926;2023-07-20T02:59:41;21.35;;;17.40;;
26750;SDS011;14345;48.272;25.926;2023-07-20T03:02:07;18.77;;;14.05;;
26750;SDS011;14345;48.272;25.926;2023-07-20T03:04:34;15.73;;;12.90;;
26750;SDS011;14345;48.272;25.926;2023-07-20T03:07:02;13.82;;;10.93;;
26750;SDS011;14345;48.272;25.926;2023-07-20T03:09:28;14.82;;;10.63;;
26750;SDS011;14345;48.272;25.926;2023-07-20T03:11:54;11.95;;;10.25;;
26750;SDS011;14345;48.272;25.926;2023-07-20T03:14:20;10.15;;;9.05;;
26750;SDS011;14345;48.272;25.926;2023-07-20T03:16:46;10.07;;;8.55;;
26750;SDS011;14345;48.272;25.926;2023-07-20T03:19:12;9.00;;;8.02;;
26750;SDS011;14345;48.272;25.926;2023-07-20T03:21:38;8.57;;;6.85;;
26750;SDS011;14345;48.272;25.926;2023-07-20T03:24:06;7.88;;;7.03;;
26750;SDS011;14345;48.272;25.926;2023-07-20T03:26:33;8.68;;;7.15;;
26750;SDS011;14345;48.272;25.926;2023-07-20T03:28:59;18.98;;;14.68;;
26750;SDS011;14345;48.272;25.926;2023-07-20T03:31:25;20.30;;;15.07;;
26750;SDS011;14345;48.272;25.926;2023-07-20T03:33:51;11.55;;;9.68;;
26750;SDS011;14345;48.272;25.926;2023-07-20T03:36:17;9.52;;;8.27;;
26750;SDS011;14345;48.272;25.926;2023-07-20T03:38:43;12.20;;;9.50;;
26750;SDS011;14345;48.272;25.926;2023-07-20T03:41:09;12.95;;;9.57;;
26750;SDS011;14345;48.272;25.926;2023-07-20T03:43:36;13.05;;;10.25;;
26750;SDS011;14345;48.272;25.926;2023-07-20T03:46:02;13.23;;;9.32;;
26750;SDS011;14345;48.272;25.926;2023-07-20T03:48:32;11.18;;;9.38;;
26750;SDS011;14345;48.272;25.926;2023-07-20T03:50:58;12.15;;;9.98;;
26750;SDS011;14345;48.272;25.926;2023-07-20T03:53:25;13.23;;;10.75;;
26750;SDS011;14345;48.272;25.926;2023-07-20T03:55:51;13.65;;;10.80;;
26750;SDS011;14345;48.272;25.926;2023-07-20T03:58:18;14.43;;;11.32;;
26750;SDS011;14345;48.272;25.926;2023-07-20T04:00:48;13.15;;;10.52;;
26750;SDS011;14345;48.272;25.926;2023-07-20T04:03:15;13.18;;;10.80;;
26750;SDS011;14345;48.272;25.926;2023-07-20T04:05:41;12.30;;;10.15;;
26750;SDS011;14345;48.272;25.926;2023-07-20T04:08:07;12.02;;;9.95;;
26750;SDS011;14345;48.272;25.926;2023-07-20T04:10:34;13.68;;;9.45;;
26750;SDS011;14345;48.272;25.926;2023-07-20T04:13:00;11.98;;;9.30;;
26750;SDS011;14345;48.272;25.926;2023-07-20T04:15:26;12.60;;;8.80;;
26750;SDS011;14345;48.272;25.926;2023-07-20T04:17:52;9.73;;;7.63;;
26750;SDS011;14345;48.272;25.926;2023-07-20T04:20:20;11.00;;;9.52;;
26750;SDS011;14345;48.272;25.926;2023-07-20T04:22:47;12.20;;;10.57;;
26750;SDS011;14345;48.272;25.926;2023-07-20T04:25:13;10.60;;;9.30;;
26750;SDS011;14345;48.272;25.926;2023-07-20T04:27:39;14.18;;;9.50;;
26750;SDS011;14345;48.272;25.926;2023-07-20T04:30:07;13.48;;;11.02;;
26750;SDS011;14345;48.272;25.926;2023-07-20T04:32:33;9.95;;;8.35;;
26750;SDS011;14345;48.272;25.926;2023-07-20T04:34:59;10.00;;;9.00;;
26750;SDS011;14345;48.272;25.926;2023-07-20T04:37:25;10.70;;;7.82;;
26750;SDS011;14345;48.272;25.926;2023-07-20T04:39:51;7.53;;;5.97;;
26750;SDS011;14345;48.272;25.926;2023-07-20T04:42:17;8.95;;;5.93;;
26750;SDS011;14345;48.272;25.926;2023-07-20T04:44:43;9.43;;;6.00;;
26750;SDS011;14345;48.272;25.926;2023-07-20T04:47:09;5.70;;;5.10;;
26750;SDS011;14345;48.272;25.926;2023-07-20T04:49:35;6.50;;;5.40;;
26750;SDS011;14345;48.272;25.926;2023-07-20T04:52:01;8.38;;;7.10;;
26750;SDS011;14345;48.272;25.926;2023-07-20T04:54:27;18.63;;;15.52;;
26750;SDS011;14345;48.272;25.926;2023-07-20T04:56:53;22.83;;;18.67;;
26750;SDS011;14345;48.272;25.926;2023-07-20T04:59:19;24.63;;;19.52;;
26750;SDS011;14345;48.272;25.926;2023-07-20T05:01:45;22.02;;;18.73;;
26750;SDS011;14345;48.272;25.926;2023-07-20T05:04:11;26.85;;;17.25;;
26750;SDS011;14345;48.272;25.926;2023-07-20T05:06:37;18.80;;;15.48;;
26750;SDS011;14345;48.272;25.926;2023-07-20T05:09:04;16.00;;;14.15;;
26750;SDS011;14345;48.272;25.926;2023-07-20T05:11:31;18.58;;;13.02;;
26750;SDS011;14345;48.272;25.926;2023-07-20T05:13:57;15.13;;;11.93;;
26750;SDS011;14345;48.272;25.926;2023-07-20T05:16:23;16.88;;;11.00;;
26750;SDS011;14345;48.272;25.926;2023-07-20T05:18:49;15.35;;;12.20;;
26750;SDS011;14345;48.272;25.926;2023-07-20T05:21:15;13.18;;;10.55;;
26750;SDS011;14345;48.272;25.926;2023-07-20T05:23:41;14.25;;;10.93;;
26750;SDS011;14345;48.272;25.926;2023-07-20T05:26:07;10.90;;;9.63;;
26750;SDS011;14345;48.272;25.926;2023-07-20T05:28:34;10.98;;;8.63;;
26750;SDS011;14345;48.272;25.926;2023-07-20T05:31:02;8.85;;;7.95;;
26750;SDS011;14345;48.272;25.926;2023-07-20T05:33:28;11.50;;;8.48;;
26750;SDS011;14345;48.272;25.926;2023-07-20T05:35:54;11.20;;;8.55;;
26750;SDS011;14345;48.272;25.926;2023-07-20T05:38:20;8.98;;;7.57;;
26750;SDS011;14345;48.272;25.926;2023-07-20T05:40:47;10.07;;;7.50;;
26750;SDS011;14345;48.272;25.926;2023-07-20T05:43:13;8.00;;;6.70;;
26750;SDS011;14345;48.272;25.926;2023-07-20T05:45:42;10.32;;;7.80;;
26750;SDS011;14345;48.272;25.926;2023-07-20T05:48:09;13.00;;;7.68;;
26750;SDS011;14345;48.272;25.926;2023-07-20T05:50:37;8.13;;;7.03;;
26750;SDS011;14345;48.272;25.926;2023-07-20T05:53:03;10.65;;;7.45;;
26750;SDS011;14345;48.272;25.926;2023-07-20T05:55:29;12.70;;;8.23;;
26750;SDS011;14345;48.272;25.926;2023-07-20T05:57:55;8.50;;;7.53;;
26750;SDS011;14345;48.272;25.926;2023-07-20T06:00:21;10.27;;;7.18;;
26750;SDS011;14345;48.272;25.926;2023-07-20T06:02:51;11.30;;;7.93;;
26750;SDS011;14345;48.272;25.926;2023-07-20T06:05:18;12.60;;;8.98;;
26750;SDS011;14345;48.272;25.926;2023-07-20T06:07:45;12.13;;;8.70;;
26750;SDS011;14345;48.272;25.926;2023-07-20T06:10:11;16.77;;;9.43;;
26750;SDS011;14345;48.272;25.926;2023-07-20T06:12:37;10.45;;;9.18;;
26750;SDS011;14345;48.272;25.926;2023-07-20T06:15:03;10.82;;;9.32;;
26750;SDS011;14345;48.272;25.926;2023-07-20T06:17:30;11.35;;;8.55;;
26750;SDS011;14345;48.272;25.926;2023-07-20T06:19:56;11.88;;;9.07;;
26750;SDS011;14345;48.272;25.926;2023-07-20T06:22:22;13.30;;;8.40;;
26750;SDS011;14345;48.272;25.926;2023-07-20T06:24:48;8.70;;;7.35;;
26750;SDS011;14345;48.272;25.926;2023-07-20T06:27:14;9.95;;;7.70;;
26750;SDS011;14345;48.272;25.926;2023-07-20T06:29:40;10.00;;;7.28;;
26750;SDS011;14345;48.272;25.926;2023-07-20T06:32:07;9.10;;;6.85;;
26750;SDS011;14345;48.272;25.926;2023-07-20T06:34:33;7.82;;;6.70;;
26750;SDS011;14345;48.272;25.926;2023-07-20T06:37:03;8.20;;;7.05;;
26750;SDS011;14345;48.272;25.926;2023-07-20T06:39:29;11.75;;;7.72;;
26750;SDS011;14345;48.272;25.926;2023-07-20T06:41:55;10.32;;;7.03;;
26750;SDS011;14345;48.272;25.926;2023-07-20T06:44:21;10.10;;;6.53;;
26750;SDS011;14345;48.272;25.926;2023-07-20T06:46:48;7.63;;;6.05;;
26750;SDS011;14345;48.272;25.926;2023-07-20T06:49:23;7.55;;;6.28;;
26750;SDS011;14345;48.272;25.926;2023-07-20T06:51:50;9.63;;;6.97;;
26750;SDS011;14345;48.272;25.926;2023-07-20T06:54:16;7.32;;;6.18;;
26750;SDS011;14345;48.272;25.926;2023-07-20T06:56:42;9.13;;;6.90;;
26750;SDS011;14345;48.272;25.926;2023-07-20T06:59:08;8.55;;;6.90;;
26750;SDS011;14345;48.272;25.926;2023-07-20T07:01:34;7.30;;;6.05;;
26750;SDS011;14345;48.272;25.926;2023-07-20T07:04:00;7.35;;;6.07;;
26750;SDS011;14345;48.272;25.926;2023-07-20T07:06:26;7.38;;;5.60;;
26750;SDS011;14345;48.272;25.926;2023-07-20T07:08:55;8.13;;;5.68;;
26750;SDS011;14345;48.272;25.926;2023-07-20T07:11:21;8.35;;;5.82;;
26750;SDS011;14345;48.272;25.926;2023-07-20T07:13:48;7.32;;;6.07;;
26750;SDS011;14345;48.272;25.926;2023-07-20T07:16:16;9.80;;;6.28;;
26750;SDS011;14345;48.272;25.926;2023-07-20T07:18:46;8.65;;;5.80;;
26750;SDS011;14345;48.272;25.926;2023-07-20T07:21:12;8.15;;;6.13;;
26750;SDS011;14345;48.272;25.926;2023-07-20T07:23:38;7.38;;;5.90;;
26750;SDS011;14345;48.272;25.926;2023-07-20T07:26:05;7.68;;;6.30;;
26750;SDS011;14345;48.272;25.926;2023-07-20T07:28:31;9.68;;;7.50;;
26750;SDS011;14345;48.272;25.926;2023-07-20T07:30:57;7.72;;;6.28;;
26750;SDS011;14345;48.272;25.926;2023-07-20T07:33:23;6.18;;;5.45;;
26750;SDS011;14345;48.272;25.926;2023-07-20T07:35:49;10.00;;;6.15;;
26750;SDS011;14345;48.272;25.926;2023-07-20T07:38:16;7.95;;;5.97;;
26750;SDS011;14345;48.272;25.926;2023-07-20T07:40:42;9.38;;;5.90;;
26750;SDS011;14345;48.272;25.926;2023-07-20T07:43:08;7.70;;;6.47;;
26750;SDS011;14345;48.272;25.926;2023-07-20T07:45:35;9.13;;;6.28;;
26750;SDS011;14345;48.272;25.926;2023-07-20T07:48:02;8.02;;;5.93;;
26750;SDS011;14345;48.272;25.926;2023-07-20T07:50:29;7.00;;;5.68;;
26750;SDS011;14345;48.272;25.926;2023-07-20T07:52:55;7.75;;;6.00;;
26750;SDS011;14345;48.272;25.926;2023-07-20T07:55:21;10.32;;;6.80;;
26750;SDS011;14345;48.272;25.926;2023-07-20T07:57:47;7.55;;;5.47;;
26750;SDS011;14345;48.272;25.926;2023-07-20T08:00:13;6.70;;;5.28;;
26750;SDS011;14345;48.272;25.926;2023-07-20T08:02:42;7.97;;;5.90;;
26750;SDS011;14345;48.272;25.926;2023-07-20T08:05:09;7.18;;;5.88;;
26750;SDS011;14345;48.272;25.926;2023-07-20T08:07:36;7.38;;;5.47;;
26750;SDS011;14345;48.272;25.926;2023-07-20T08:10:02;6.20;;;4.90;;
26750;SDS011;14345;48.272;25.926;2023-07-20T08:12:28;7.85;;;5.15;;
26750;SDS011;14345;48.272;25.926;2023-07-20T08:14:54;8.73;;;5.93;;
26750;SDS011;14345;48.272;25.926;2023-07-20T08:17:20;9.45;;;6.20;;
26750;SDS011;14345;48.272;25.926;2023-07-20T08:19:46;7.28;;;5.50;;
26750;SDS011;14345;48.272;25.926;2023-07-20T08:22:12;6.57;;;5.40;;
26750;SDS011;14345;48.272;25.926;2023-07-20T08:24:39;11.27;;;7.53;;
26750;SDS011;14345;48.272;25.926;2023-07-20T08:27:05;9.70;;;6.45;;
26750;SDS011;14345;48.272;25.926;2023-07-20T08:29:31;11.38;;;6.80;;
26750;SDS011;14345;48.272;25.926;2023-07-20T08:31:57;8.80;;;6.78;;
26750;SDS011;14345;48.272;25.926;2023-07-20T08:34:23;9.93;;;7.57;;
26750;SDS011;14345;48.272;25.926;2023-07-20T08:36:49;9.38;;;6.15;;
26750;SDS011;14345;48.272;25.926;2023-07-20T08:39:15;10.23;;;6.55;;
26750;SDS011;14345;48.272;25.926;2023-07-20T08:41:46;9.20;;;6.30;;
26750;SDS011;14345;48.272;25.926;2023-07-20T08:44:12;18.27;;;7.25;;
26750;SDS011;14345;48.272;25.926;2023-07-20T08:46:39;7.68;;;6.07;;
26750;SDS011;14345;48.272;25.926;2023-07-20T08:49:06;6.18;;;5.05;;
26750;SDS011;14345;48.272;25.926;2023-07-20T08:51:32;9.15;;;5.22;;
26750;SDS011;14345;48.272;25.926;2023-07-20T08:53:59;7.28;;;4.95;;
26750;SDS011;14345;48.272;25.926;2023-07-20T08:56:25;6.30;;;4.90;;
26750;SDS011;14345;48.272;25.926;2023-07-20T08:58:51;6.93;;;5.28;;
26750;SDS011;14345;48.272;25.926;2023-07-20T09:01:18;5.55;;;4.68;;
26750;SDS011;14345;48.272;25.926;2023-07-20T09:03:44;9.95;;;4.32;;
26750;SDS011;14345;48.272;25.926;2023-07-20T09:06:11;6.00;;;4.32;;
26750;SDS011;14345;48.272;25.926;2023-07-20T09:08:38;5.65;;;4.07;;
26750;SDS011;14345;48.272;25.926;2023-07-20T09:11:04;4.30;;;3.75;;
26750;SDS011;14345;48.272;25.926;2023-07-20T09:13:31;4.20;;;3.80;;
26750;SDS011;14345;48.272;25.926;2023-07-20T09:15:57;4.90;;;4.35;;
26750;SDS011;14345;48.272;25.926;2023-07-20T09:18:24;6.25;;;4.45;;
26750;SDS011;14345;48.272;25.926;2023-07-20T09:20:50;4.32;;;3.78;;
26750;SDS011;14345;48.272;25.926;2023-07-20T09:23:16;5.13;;;4.30;;
26750;SDS011;14345;48.272;25.926;2023-07-20T09:25:42;6.40;;;3.92;;
26750;SDS011;14345;48.272;25.926;2023-07-20T09:28:10;3.50;;;3.20;;
26750;SDS011;14345;48.272;25.926;2023-07-20T09:30:37;3.30;;;3.00;;
26750;SDS011;14345;48.272;25.926;2023-07-20T09:33:03;4.30;;;3.65;;
26750;SDS011;14345;48.272;25.926;2023-07-20T09:35:29;3.80;;;3.40;;
26750;SDS011;14345;48.272;25.926;2023-07-20T09:37:58;3.58;;;3.08;;
26750;SDS011;14345;48.272;25.926;2023-07-20T09:40:25;3.88;;;3.45;;
26750;SDS011;14345;48.272;25.926;2023-07-20T09:42:52;5.07;;;3.10;;
26750;SDS011;14345;48.272;25.926;2023-07-20T09:45:18;4.22;;;3.17;;
26750;SDS011;14345;48.272;25.926;2023-07-20T09:47:45;3.72;;;3.20;;
26750;SDS011;14345;48.272;25.926;2023-07-20T09:50:11;4.65;;;3.03;;
26750;SDS011;14345;48.272;25.926;2023-07-20T09:52:38;4.55;;;3.17;;
26750;SDS011;14345;48.272;25.926;2023-07-20T09:55:05;4.15;;;3.40;;
26750;SDS011;14345;48.272;25.926;2023-07-20T09:57:32;6.13;;;3.35;;
26750;SDS011;14345;48.272;25.926;2023-07-20T09:59:58;6.15;;;3.55;;
26750;SDS011;14345;48.272;25.926;2023-07-20T10:02:25;4.60;;;3.88;;
26750;SDS011;14345;48.272;25.926;2023-07-20T10:04:52;5.05;;;3.60;;
26750;SDS011;14345;48.272;25.926;2023-07-20T10:07:18;6.05;;;3.95;;
26750;SDS011;14345;48.272;25.926;2023-07-20T10:09:47;4.43;;;3.85;;
26750;SDS011;14345;48.272;25.926;2023-07-20T10:12:14;4.38;;;3.65;;
26750;SDS011;14345;48.272;25.926;2023-07-20T10:14:41;6.35;;;3.58;;
26750;SDS011;14345;48.272;25.926;2023-07-20T10:17:09;5.05;;;3.42;;
26750;SDS011;14345;48.272;25.926;2023-07-20T10:19:43;5.55;;;3.60;;
26750;SDS011;14345;48.272;25.926;2023-07-20T10:22:12;7.15;;;3.80;;
26750;SDS011;14345;48.272;25.926;2023-07-20T10:24:41;5.45;;;3.90;;
26750;SDS011;14345;48.272;25.926;2023-07-20T10:27:07;5.20;;;4.38;;
26750;SDS011;14345;48.272;25.926;2023-07-20T10:29:33;5.53;;;3.95;;
26750;SDS011;14345;48.272;25.926;2023-07-20T10:32:00;6.30;;;3.63;;
26750;SDS011;14345;48.272;25.926;2023-07-20T10:34:26;4.68;;;3.58;;
26750;SDS011;14345;48.272;25.926;2023-07-20T10:36:52;6.55;;;3.70;;
26750;SDS011;14345;48.272;25.926;2023-07-20T10:39:37;11.30;;;4.25;;
26750;SDS011;14345;48.272;25.926;2023-07-20T10:42:06;6.38;;;3.97;;
26750;SDS011;14345;48.272;25.926;2023-07-20T10:44:32;4.72;;;3.55;;
26750;SDS011;14345;48.272;25.926;2023-07-20T10:47:02;5.25;;;3.30;;
26750;SDS011;14345;48.272;25.926;2023-07-20T10:49:32;5.13;;;3.67;;
26750;SDS011;14345;48.272;25.926;2023-07-20T10:51:59;5.90;;;3.45;;
26750;SDS011;14345;48.272;25.926;2023-07-20T10:56:51;3.25;;;2.83;;
26750;SDS011;14345;48.272;25.926;2023-07-20T10:59:18;3.67;;;2.88;;
26750;SDS011;14345;48.272;25.926;2023-07-20T11:01:45;3.95;;;2.50;;
26750;SDS011;14345;48.272;25.926;2023-07-20T11:04:12;4.65;;;3.00;;
26750;SDS011;14345;48.272;25.926;2023-07-20T11:06:41;4.60;;;2.35;;
26750;SDS011;14345;48.272;25.926;2023-07-20T11:09:09;3.80;;;2.80;;
26750;SDS011;14345;48.272;25.926;2023-07-20T11:11:36;4.05;;;2.55;;
26750;SDS011;14345;48.272;25.926;2023-07-20T11:14:06;3.38;;;3.05;;
26750;SDS011;14345;48.272;25.926;2023-07-20T11:19:02;5.47;;;2.88;;
26750;SDS011;14345;48.272;25.926;2023-07-20T11:21:29;8.88;;;3.33;;
26750;SDS011;14345;48.272;25.926;2023-07-20T11:23:56;8.60;;;4.32;;
26750;SDS011;14345;48.272;25.926;2023-07-20T11:26:22;5.88;;;3.95;;
26750;SDS011;14345;48.272;25.926;2023-07-20T11:28:49;5.78;;;4.43;;
26750;SDS011;14345;48.272;25.926;2023-07-20T11:31:15;5.65;;;4.03;;
26750;SDS011;14345;48.272;25.926;2023-07-20T11:33:41;6.10;;;3.58;;
26750;SDS011;14345;48.272;25.926;2023-07-20T11:36:10;5.00;;;3.40;;
26750;SDS011;14345;48.272;25.926;2023-07-20T11:38:36;4.88;;;3.38;;
26750;SDS011;14345;48.272;25.926;2023-07-20T11:41:02;7.35;;;3.65;;
26750;SDS011;14345;48.272;25.926;2023-07-20T11:43:29;7.55;;;3.63;;
26750;SDS011;14345;48.272;25.926;2023-07-20T11:45:55;6.72;;;3.60;;
26750;SDS011;14345;48.272;25.926;2023-07-20T11:48:21;5.18;;;3.08;;
26750;SDS011;14345;48.272;25.926;2023-07-20T11:50:47;5.07;;;3.53;;
26750;SDS011;14345;48.272;25.926;2023-07-20T11:53:13;3.97;;;3.05;;
26750;SDS011;14345;48.272;25.926;2023-07-20T11:55:40;4.45;;;3.22;;
26750;SDS011;14345;48.272;25.926;2023-07-20T11:58:07;4.32;;;2.60;;
26750;SDS011;14345;48.272;25.926;2023-07-20T12:00:33;3.25;;;2.45;;
26750;SDS011;14345;48.272;25.926;2023-07-20T12:03:00;5.30;;;2.67;;
26750;SDS011;14345;48.272;25.926;2023-07-20T12:05:26;4.85;;;2.20;;
26750;SDS011;14345;48.272;25.926;2023-07-20T12:07:52;3.03;;;2.10;;
26750;SDS011;14345;48.272;25.926;2023-07-20T12:10:25;3.63;;;2.28;;
26750;SDS011;14345;48.272;25.926;2023-07-20T12:12:51;2.72;;;2.40;;
26750;SDS011;14345;48.272;25.926;2023-07-20T12:15:24;2.33;;;2.13;;
26750;SDS011;14345;48.272;25.926;2023-07-20T12:17:58;2.47;;;1.90;;
26750;SDS011;14345;48.272;25.926;2023-07-20T12:20:33;3.75;;;2.05;;
26750;SDS011;14345;48.272;25.926;2023-07-20T12:23:04;4.97;;;2.17;;
26750;SDS011;14345;48.272;25.926;2023-07-20T12:25:37;2.30;;;2.00;;
26750;SDS011;14345;48.272;25.926;2023-07-20T12:28:25;3.20;;;1.90;;
26750;SDS011;14345;48.272;25.926;2023-07-20T12:30:51;4.15;;;2.20;;
26750;SDS011;14345;48.272;25.926;2023-07-20T12:33:21;2.30;;;1.98;;
26750;SDS011;14345;48.272;25.926;2023-07-20T12:35:48;3.05;;;1.80;;
26750;SDS011;14345;48.272;25.926;2023-07-20T12:38:15;2.20;;;2.00;;
26750;SDS011;14345;48.272;25.926;2023-07-20T12:40:41;2.47;;;1.98;;
26750;SDS011;14345;48.272;25.926;2023-07-20T12:43:07;2.45;;;2.00;;
26750;SDS011;14345;48.272;25.926;2023-07-20T12:45:34;2.25;;;1.73;;
26750;SDS011;14345;48.272;25.926;2023-07-20T12:47:59;1.70;;;1.50;;
26750;SDS011;14345;48.272;25.926;2023-07-20T12:50:26;2.78;;;1.83;;
26750;SDS011;14345;48.272;25.926;2023-07-20T12:52:52;5.57;;;3.55;;
26750;SDS011;14345;48.272;25.926;2023-07-20T12:55:18;4.97;;;2.65;;
26750;SDS011;14345;48.272;25.926;2023-07-20T12:57:45;5.72;;;2.63;;
26750;SDS011;14345;48.272;25.926;2023-07-20T13:00:14;4.93;;;3.03;;
26750;SDS011;14345;48.272;25.926;2023-07-20T13:02:41;3.53;;;2.67;;
26750;SDS011;14345;48.272;25.926;2023-07-20T13:05:08;5.88;;;2.55;;
26750;SDS011;14345;48.272;25.926;2023-07-20T13:07:35;6.18;;;2.50;;
26750;SDS011;14345;48.272;25.926;2023-07-20T13:10:02;4.38;;;2.80;;
26750;SDS011;14345;48.272;25.926;2023-07-20T13:12:30;5.25;;;2.72;;
26750;SDS011;14345;48.272;25.926;2023-07-20T13:14:56;4.80;;;2.70;;
26750;SDS011;14345;48.272;25.926;2023-07-20T13:17:25;5.25;;;2.95;;
26750;SDS011;14345;48.272;25.926;2023-07-20T13:19:51;4.40;;;3.28;;
26750;SDS011;14345;48.272;25.926;2023-07-20T13:22:18;4.47;;;2.80;;
26750;SDS011;14345;48.272;25.926;2023-07-20T13:24:44;4.68;;;2.38;;
26750;SDS011;14345;48.272;25.926;2023-07-20T13:27:11;3.88;;;2.70;;
26750;SDS011;14345;48.272;25.926;2023-07-20T13:29:37;2.88;;;2.53;;
26750;SDS011;14345;48.272;25.926;2023-07-20T13:32:03;2.70;;;2.30;;
26750;SDS011;14345;48.272;25.926;2023-07-20T13:34:31;4.63;;;2.60;;
26750;SDS011;14345;48.272;25.926;2023-07-20T13:36:57;3.72;;;2.70;;
26750;SDS011;14345;48.272;25.926;2023-07-20T13:39:23;3.92;;;2.65;;
26750;SDS011;14345;48.272;25.926;2023-07-20T13:41:52;6.05;;;3.13;;
26750;SDS011;14345;48.272;25.926;2023-07-20T13:44:18;4.13;;;2.55;;
26750;SDS011;14345;48.272;25.926;2023-07-20T13:46:45;4.10;;;2.30;;
26750;SDS011;14345;48.272;25.926;2023-07-20T13:49:11;2.42;;;2.22;;
26750;SDS011;14345;48.272;25.926;2023-07-20T13:51:37;6.25;;;2.72;;
26750;SDS011;14345;48.272;25.926;2023-07-20T13:54:03;3.67;;;2.50;;
26750;SDS011;14345;48.272;25.926;2023-07-20T13:56:29;4.05;;;2.50;;
26750;SDS011;14345;48.272;25.926;2023-07-20T13:58:56;3.78;;;2.72;;
26750;SDS011;14345;48.272;25.926;2023-07-20T14:01:22;2.97;;;2.60;;
26750;SDS011;14345;48.272;25.926;2023-07-20T14:03:49;3.90;;;3.20;;
26750;SDS011;14345;48.272;25.926;2023-07-20T14:06:16;4.53;;;2.55;;
26750;SDS011;14345;48.272;25.926;2023-07-20T14:08:42;3.70;;;2.47;;
26750;SDS011;14345;48.272;25.926;2023-07-20T14:11:11;2.88;;;2.15;;
26750;SDS011;14345;48.272;25.926;2023-07-20T14:13:37;4.03;;;2.30;;
26750;SDS011;14345;48.272;25.926;2023-07-20T14:16:04;4.15;;;2.42;;
26750;SDS011;14345;48.272;25.926;2023-07-20T14:18:30;4.68;;;2.38;;
26750;SDS011;14345;48.272;25.926;2023-07-20T14:20:56;3.03;;;2.40;;
26750;SDS011;14345;48.272;25.926;2023-07-20T14:23:22;4.88;;;2.60;;
26750;SDS011;14345;48.272;25.926;2023-07-20T14:25:48;2.50;;;2.30;;
26750;SDS011;14345;48.272;25.926;2023-07-20T14:28:14;3.42;;;2.30;;
26750;SDS011;14345;48.272;25.926;2023-07-20T14:30:41;3.58;;;2.30;;
26750;SDS011;14345;48.272;25.926;2023-07-20T14:33:07;3.78;;;1.88;;
26750;SDS011;14345;48.272;25.926;2023-07-20T14:35:33;5.18;;;2.20;;